Time;durP1;ratioP1;P1;durP2;ratioP2;P2;SDS_P1;SDS_P2;PMS_P1;PMS_P2;Temp;Humidity;BMP_temperature;BMP_pressure;BME280_temperature;BME280_humidity;BME280_pressure;Samples;Min_cycle;Max_cycle;Signal;HPM_P1;HPM_P2
2023/02/14 00:01:47;;;;;;;5.33;3.87;;;;;;;;;;5066897;28;20237;-49
2023/02/14 00:04:19;;;;;;;5.20;4.03;;;;;;;;;;5068538;28;20494;-49
2023/02/14 00:06:52;;;;;;;6.60;3.80;;;;;;;;;;5069831;28;20205;-49
2023/02/14 00:09:21;;;;;;;5.20;3.87;;;;;;;;;;5068459;28;20198;-49
2023/02/14 00:11:53;;;;;;;4.67;3.40;;;;;;;;;;5068261;28;20193;-49
2023/02/14 00:17:12;;;;;;;5.03;3.90;;;;;;;;;;5070779;28;20198;-49
2023/02/14 00:19:44;;;;;;;4.57;3.23;;;;;;;;;;5058076;28;20925;-49
2023/02/14 00:22:14;;;;;;;5.37;3.53;;;;;;;;;;5045236;28;20232;-49
2023/02/14 00:24:44;;;;;;;6.47;4.07;;;;;;;;;;5063828;28;20210;-49
2023/02/14 00:27:13;;;;;;;5.07;3.20;;;;;;;;;;5068691;28;20210;-49
2023/02/14 00:29:45;;;;;;;4.63;3.13;;;;;;;;;;5068379;28;20202;-49
2023/02/14 00:32:29;;;;;;;6.80;3.70;;;;;;;;;;5067839;28;20210;-49
2023/02/14 00:35:01;;;;;;;5.27;3.40;;;;;;;;;;5068209;28;20216;-49
2023/02/14 00:37:32;;;;;;;4.50;3.40;;;;;;;;;;5061384;28;20194;-49
2023/02/14 00:40:02;;;;;;;4.80;3.40;;;;;;;;;;5052622;28;20210;-49
2023/02/14 00:42:33;;;;;;;6.03;3.47;;;;;;;;;;5067006;28;20229;-49
2023/02/14 00:45:02;;;;;;;4.20;3.10;;;;;;;;;;5067558;28;20217;-49
2023/02/14 00:47:32;;;;;;;4.23;3.07;;;;;;;;;;5067354;28;20225;-49
2023/02/14 00:50:04;;;;;;;4.93;3.60;;;;;;;;;;5068463;28;20296;-49
2023/02/14 00:52:37;;;;;;;3.30;3.00;;;;;;;;;;5072309;28;20208;-49
2023/02/14 00:55:10;;;;;;;5.90;3.10;;;;;;;;;;5053764;28;20190;-49
2023/02/14 00:57:39;;;;;;;6.23;3.07;;;;;;;;;;5067807;28;20662;-49
2023/02/14 01:00:08;;;;;;;3.70;3.00;;;;;;;;;;5070242;28;20186;-49
2023/02/14 01:02:38;;;;;;;3.23;2.73;;;;;;;;;;5066888;28;20561;-49
2023/02/14 01:05:10;;;;;;;3.23;2.70;;;;;;;;;;5069236;28;20185;-49
2023/02/14 01:07:39;;;;;;;5.23;2.93;;;;;;;;;;5071778;28;20659;-49
2023/02/14 01:10:14;;;;;;;4.27;3.20;;;;;;;;;;5070399;28;20196;-49
2023/02/14 01:12:45;;;;;;;4.47;2.80;;;;;;;;;;5069918;28;20206;-49
2023/02/14 01:15:14;;;;;;;5.00;3.20;;;;;;;;;;5067800;28;20911;-49
2023/02/14 01:17:45;;;;;;;4.17;3.10;;;;;;;;;;5067759;28;20190;-49
2023/02/14 01:20:15;;;;;;;5.23;3.40;;;;;;;;;;5052771;28;20205;-49
2023/02/14 01:22:44;;;;;;;3.87;3.17;;;;;;;;;;5069989;28;20643;-49
2023/02/14 01:25:17;;;;;;;5.10;2.80;;;;;;;;;;5069552;28;20255;-49
2023/02/14 01:27:47;;;;;;;3.97;2.70;;;;;;;;;;5044364;28;20206;-49
2023/02/14 01:30:22;;;;;;;5.20;2.87;;;;;;;;;;5048228;28;20206;-49
2023/02/14 01:33:05;;;;;;;3.53;2.50;;;;;;;;;;5069115;28;20201;-49
2023/02/14 01:35:37;;;;;;;3.77;3.17;;;;;;;;;;5065944;28;20714;-49
2023/02/14 01:38:09;;;;;;;4.20;2.87;;;;;;;;;;5052919;28;20236;-49
2023/02/14 01:40:48;;;;;;;5.93;3.00;;;;;;;;;;5068262;28;20247;-49
2023/02/14 01:43:33;;;;;;;4.00;2.73;;;;;;;;;;5064618;28;20861;-49
2023/02/14 01:46:01;;;;;;;5.00;3.37;;;;;;;;;;5069388;28;20189;-49
2023/02/14 01:48:33;;;;;;;3.40;2.70;;;;;;;;;;5069941;28;20787;-49
2023/02/14 01:51:01;;;;;;;3.90;3.07;;;;;;;;;;5070073;28;20247;-49
2023/02/14 01:53:30;;;;;;;3.33;2.70;;;;;;;;;;5068559;28;20715;-49
2023/02/14 01:56:08;;;;;;;4.10;2.80;;;;;;;;;;5070336;28;20773;-49
2023/02/14 01:58:43;;;;;;;3.73;2.73;;;;;;;;;;5079909;28;20224;-49
2023/02/14 02:01:17;;;;;;;3.07;2.57;;;;;;;;;;5069927;28;20199;-49
2023/02/14 02:03:49;;;;;;;3.23;2.87;;;;;;;;;;5047800;28;20294;-49
2023/02/14 02:06:29;;;;;;;4.37;3.10;;;;;;;;;;5070954;28;20194;-49
2023/02/14 02:09:16;;;;;;;4.83;3.23;;;;;;;;;;5067311;28;20208;-49
2023/02/14 02:11:56;;;;;;;4.73;2.90;;;;;;;;;;5050883;28;20755;-49
2023/02/14 02:14:31;;;;;;;3.00;2.63;;;;;;;;;;5065438;28;20583;-49
2023/02/14 02:17:16;;;;;;;3.30;2.77;;;;;;;;;;5067212;28;20251;-49
2023/02/14 02:19:53;;;;;;;3.80;3.00;;;;;;;;;;5049976;28;20222;-49
2023/02/14 02:22:34;;;;;;;3.13;2.83;;;;;;;;;;5065431;28;20201;-49
2023/02/14 02:25:09;;;;;;;3.50;2.80;;;;;;;;;;5066056;28;20216;-49
2023/02/14 02:27:54;;;;;;;3.30;2.73;;;;;;;;;;5064623;28;20557;-49
2023/02/14 02:30:44;;;;;;;3.10;2.70;;;;;;;;;;5061865;28;20611;-49
2023/02/14 02:33:17;;;;;;;4.73;3.00;;;;;;;;;;5060485;28;20231;-49
2023/02/14 02:36:07;;;;;;;3.67;3.13;;;;;;;;;;5070386;28;20208;-49
2023/02/14 02:38:59;;;;;;;3.30;2.93;;;;;;;;;;5063555;28;20685;-49
2023/02/14 02:41:35;;;;;;;2.90;2.40;;;;;;;;;;5064992;28;20522;-49
2023/02/14 02:44:30;;;;;;;3.77;3.10;;;;;;;;;;5063442;28;20797;-49
2023/02/14 02:47:19;;;;;;;3.80;3.20;;;;;;;;;;5068319;28;20186;-49
2023/02/14 02:53:12;;;;;;;3.00;2.70;;;;;;;;;;5060196;28;20190;-49
2023/02/14 02:59:19;;;;;;;4.73;3.53;;;;;;;;;;5063395;28;20767;-49
2023/02/14 03:01:55;;;;;;;3.40;2.90;;;;;;;;;;5065946;28;20210;-49
2023/02/14 03:10:09;;;;;;;4.60;3.50;;;;;;;;;;5066629;28;20197;-49
2023/02/14 03:12:57;;;;;;;4.30;3.50;;;;;;;;;;5067705;28;20619;-49
2023/02/14 03:15:34;;;;;;;4.23;3.03;;;;;;;;;;5054194;28;20221;-49
2023/02/14 03:18:12;;;;;;;3.37;2.93;;;;;;;;;;5072622;28;20197;-49
2023/02/14 03:20:56;;;;;;;3.33;3.00;;;;;;;;;;5066803;28;20622;-49
2023/02/14 03:23:45;;;;;;;4.20;3.70;;;;;;;;;;5064266;28;20959;-49
2023/02/14 03:26:31;;;;;;;3.83;2.97;;;;;;;;;;5046188;28;20214;-49
2023/02/14 03:29:15;;;;;;;4.07;3.23;;;;;;;;;;5061089;28;20202;-49
2023/02/14 03:31:59;;;;;;;4.50;3.17;;;;;;;;;;5061928;28;20186;-49
2023/02/14 03:34:59;;;;;;;3.13;2.83;;;;;;;;;;5069209;28;20202;-49
2023/02/14 03:37:48;;;;;;;4.67;3.30;;;;;;;;;;5020162;28;20575;-50
2023/02/14 03:40:34;;;;;;;3.53;3.20;;;;;;;;;;5066338;28;20308;-49
2023/02/14 03:43:12;;;;;;;5.13;3.63;;;;;;;;;;5062624;28;20618;-49
2023/02/14 03:45:56;;;;;;;3.30;3.00;;;;;;;;;;5065400;28;20646;-49
2023/02/14 03:48:26;;;;;;;4.10;2.93;;;;;;;;;;5066789;28;20271;-49
2023/02/14 03:50:58;;;;;;;3.77;2.97;;;;;;;;;;5046274;28;20730;-49
2023/02/14 03:53:33;;;;;;;3.00;2.63;;;;;;;;;;5063216;28;20623;-49
2023/02/14 03:56:26;;;;;;;3.33;2.73;;;;;;;;;;5049809;28;20192;-49
2023/02/14 03:59:00;;;;;;;3.97;3.37;;;;;;;;;;5051503;28;20213;-49
2023/02/14 04:01:36;;;;;;;3.17;2.87;;;;;;;;;;5043705;28;20193;-49
2023/02/14 04:04:07;;;;;;;4.90;3.60;;;;;;;;;;5048193;28;20193;-49
2023/02/14 04:06:50;;;;;;;4.63;3.10;;;;;;;;;;5069790;28;20289;-49
2023/02/14 04:09:17;;;;;;;3.73;2.70;;;;;;;;;;5068542;28;20202;-49
2023/02/14 04:11:49;;;;;;;4.10;3.40;;;;;;;;;;5066935;28;20189;-49
2023/02/14 04:14:19;;;;;;;3.70;2.97;;;;;;;;;;5045021;28;20215;-49
2023/02/14 04:19:39;;;;;;;3.20;2.90;;;;;;;;;;5068233;28;20728;-49
2023/02/14 04:22:10;;;;;;;3.13;2.80;;;;;;;;;;5066748;28;20202;-49
2023/02/14 04:24:42;;;;;;;3.67;3.07;;;;;;;;;;5071665;28;20221;-49
2023/02/14 04:27:12;;;;;;;3.20;2.90;;;;;;;;;;5067085;28;20213;-49
2023/02/14 04:29:51;;;;;;;3.77;2.70;;;;;;;;;;5068208;28;20601;-49
2023/02/14 04:32:27;;;;;;;3.27;2.97;;;;;;;;;;5054621;28;20254;-49
2023/02/14 04:34:59;;;;;;;3.20;2.90;;;;;;;;;;5073799;28;20716;-49
2023/02/14 04:37:32;;;;;;;3.50;2.57;;;;;;;;;;5047425;28;20198;-49
2023/02/14 04:40:03;;;;;;;3.27;2.97;;;;;;;;;;5069960;28;20940;-49
2023/02/14 04:42:33;;;;;;;4.20;3.10;;;;;;;;;;5070891;28;20237;-49
2023/02/14 04:45:03;;;;;;;5.73;2.83;;;;;;;;;;5052667;28;20205;-49
2023/02/14 04:47:33;;;;;;;3.23;2.93;;;;;;;;;;5067700;28;20209;-49
2023/02/14 04:50:04;;;;;;;5.27;3.00;;;;;;;;;;5066508;28;20210;-49
2023/02/14 04:52:34;;;;;;;3.30;3.00;;;;;;;;;;5069918;28;20193;-49
2023/02/14 04:55:11;;;;;;;5.03;3.00;;;;;;;;;;5050620;28;20193;-49
2023/02/14 04:57:41;;;;;;;3.47;3.00;;;;;;;;;;5050428;28;20194;-49
2023/02/14 05:00:12;;;;;;;3.00;2.70;;;;;;;;;;5069600;28;20486;-49
2023/02/14 05:02:41;;;;;;;3.27;2.90;;;;;;;;;;5070716;28;20213;-49
2023/02/14 05:05:14;;;;;;;4.03;3.00;;;;;;;;;;5069804;28;20193;-49
2023/02/14 05:07:46;;;;;;;3.73;3.00;;;;;;;;;;5065765;28;20279;-49
2023/02/14 05:10:16;;;;;;;4.17;2.80;;;;;;;;;;5068130;28;20202;-49
2023/02/14 05:12:46;;;;;;;3.23;2.70;;;;;;;;;;5066232;28;20208;-49
2023/02/14 05:15:16;;;;;;;3.77;2.80;;;;;;;;;;5061561;28;20221;-49
2023/02/14 05:17:48;;;;;;;5.23;2.60;;;;;;;;;;5066613;28;20201;-49
2023/02/14 05:20:20;;;;;;;3.67;3.10;;;;;;;;;;5061254;28;20209;-49
2023/02/14 05:22:49;;;;;;;5.77;2.67;;;;;;;;;;5060553;28;20544;-49
2023/02/14 05:25:20;;;;;;;3.40;2.53;;;;;;;;;;5065190;28;20202;-49
2023/02/14 05:27:50;;;;;;;4.10;3.00;;;;;;;;;;5067829;28;20214;-48
2023/02/14 05:30:25;;;;;;;2.93;2.63;;;;;;;;;;5068922;28;20205;-48
2023/02/14 05:33:02;;;;;;;2.90;2.60;;;;;;;;;;5069071;28;20276;-48
2023/02/14 05:35:34;;;;;;;3.43;2.77;;;;;;;;;;5061269;28;20214;-48
2023/02/14 05:38:04;;;;;;;2.97;2.20;;;;;;;;;;5067194;28;20202;-48
2023/02/14 05:40:36;;;;;;;2.97;2.40;;;;;;;;;;5068184;28;20240;-48
2023/02/14 05:43:03;;;;;;;5.53;2.50;;;;;;;;;;5068660;28;20705;-48
2023/02/14 05:45:35;;;;;;;4.63;2.83;;;;;;;;;;5051559;28;20534;-48
2023/02/14 05:48:06;;;;;;;3.77;2.40;;;;;;;;;;5051670;28;20181;-48
2023/02/14 05:50:41;;;;;;;2.60;2.40;;;;;;;;;;5066947;28;20225;-48
2023/02/14 05:53:13;;;;;;;9.87;2.70;;;;;;;;;;5067172;28;20197;-47
2023/02/14 05:55:45;;;;;;;3.23;2.67;;;;;;;;;;5061866;28;20251;-49
2023/02/14 05:58:21;;;;;;;4.10;3.07;;;;;;;;;;5068604;28;20210;-49
2023/02/14 06:00:51;;;;;;;3.73;3.00;;;;;;;;;;5075709;28;20220;-49
2023/02/14 06:03:25;;;;;;;2.83;2.43;;;;;;;;;;5064579;28;20220;-48
2023/02/14 06:05:56;;;;;;;3.07;2.57;;;;;;;;;;5051321;28;20206;-48
2023/02/14 06:08:24;;;;;;;3.70;2.90;;;;;;;;;;5068881;28;20269;-48
2023/02/14 06:10:54;;;;;;;6.07;2.93;;;;;;;;;;5069233;28;20210;-48
2023/02/14 06:13:25;;;;;;;3.40;2.73;;;;;;;;;;5066302;28;20235;-47
2023/02/14 06:15:56;;;;;;;3.63;2.60;;;;;;;;;;5073525;28;20490;-48
2023/02/14 06:18:28;;;;;;;3.13;2.77;;;;;;;;;;5068362;28;20200;-48
2023/02/14 06:21:00;;;;;;;2.60;2.40;;;;;;;;;;5067636;28;20299;-47
2023/02/14 06:23:32;;;;;;;3.13;2.80;;;;;;;;;;5065157;28;20193;-47
2023/02/14 06:25:59;;;;;;;3.50;2.83;;;;;;;;;;5066920;28;20217;-48
2023/02/14 06:28:31;;;;;;;2.90;2.70;;;;;;;;;;5067684;28;20381;-47
2023/02/14 06:31:00;;;;;;;3.17;2.67;;;;;;;;;;5071304;28;20202;-48
2023/02/14 06:33:29;;;;;;;4.20;2.77;;;;;;;;;;5066867;28;20185;-48
2023/02/14 06:36:00;;;;;;;3.20;2.90;;;;;;;;;;5067628;28;20524;-48
2023/02/14 06:38:34;;;;;;;6.10;2.93;;;;;;;;;;5065490;28;20213;-48
2023/02/14 06:41:04;;;;;;;5.30;3.00;;;;;;;;;;5071636;28;20214;-46
2023/02/14 06:43:36;;;;;;;3.27;2.53;;;;;;;;;;5067940;28;20248;-45
2023/02/14 06:46:07;;;;;;;5.70;3.27;;;;;;;;;;5077649;28;20201;-46
2023/02/14 06:48:38;;;;;;;3.10;2.80;;;;;;;;;;5048985;28;20626;-45
2023/02/14 06:51:08;;;;;;;9.87;4.40;;;;;;;;;;5065064;28;20205;-45
2023/02/14 06:53:38;;;;;;;7.33;3.77;;;;;;;;;;5064282;28;20902;-45
2023/02/14 06:56:12;;;;;;;8.00;4.03;;;;;;;;;;5067856;28;20214;-45
2023/02/14 06:58:44;;;;;;;8.33;3.43;;;;;;;;;;5064767;28;20194;-45
2023/02/14 07:01:17;;;;;;;7.13;3.47;;;;;;;;;;5064247;28;20232;-49
2023/02/14 07:03:45;;;;;;;10.23;3.87;;;;;;;;;;5058135;28;20198;-49
2023/02/14 07:06:16;;;;;;;6.30;4.07;;;;;;;;;;5048485;28;20198;-48
2023/02/14 07:08:48;;;;;;;10.47;4.07;;;;;;;;;;5064183;28;20201;-48
2023/02/14 07:11:17;;;;;;;7.10;3.93;;;;;;;;;;5061350;28;20205;-45
2023/02/14 07:13:48;;;;;;;8.40;4.20;;;;;;;;;;5063708;28;20225;-45
2023/02/14 07:16:19;;;;;;;8.17;4.73;;;;;;;;;;5066253;28;20241;-46
2023/02/14 07:18:48;;;;;;;7.93;4.33;;;;;;;;;;5059890;28;20616;-46
2023/02/14 07:21:18;;;;;;;7.20;4.27;;;;;;;;;;5067479;28;20218;-49
2023/02/14 07:23:49;;;;;;;8.03;4.37;;;;;;;;;;5066208;28;20297;-48
2023/02/14 07:26:20;;;;;;;14.13;5.67;;;;;;;;;;5060148;28;20206;-45
2023/02/14 07:28:51;;;;;;;9.10;5.20;;;;;;;;;;5072106;28;20201;-45
2023/02/14 07:31:23;;;;;;;11.70;5.37;;;;;;;;;;5061288;28;20533;-48
2023/02/14 07:33:55;;;;;;;8.70;5.03;;;;;;;;;;5065216;28;20208;-48
2023/02/14 07:36:27;;;;;;;7.43;4.60;;;;;;;;;;5064900;28;20194;-48
2023/02/14 07:38:56;;;;;;;7.67;4.37;;;;;;;;;;5060320;28;20267;-48
2023/02/14 07:41:29;;;;;;;8.97;5.00;;;;;;;;;;5046691;28;20608;-51
2023/02/14 07:43:57;;;;;;;9.80;4.90;;;;;;;;;;5067303;28;20701;-48
2023/02/14 07:46:27;;;;;;;9.63;5.03;;;;;;;;;;5067548;28;20527;-51
2023/02/14 07:48:57;;;;;;;7.57;4.77;;;;;;;;;;5064252;28;20711;-48
2023/02/14 07:51:39;;;;;;;10.83;4.97;;;;;;;;;;5063703;28;20212;-45
2023/02/14 07:54:07;;;;;;;9.40;4.93;;;;;;;;;;5066768;28;20201;-45
2023/02/14 07:56:37;;;;;;;6.63;4.27;;;;;;;;;;5053527;28;20213;-48
2023/02/14 07:59:07;;;;;;;8.00;4.60;;;;;;;;;;5045607;28;20210;-48
2023/02/14 08:01:35;;;;;;;8.37;4.93;;;;;;;;;;5061057;28;20225;-49
2023/02/14 08:04:06;;;;;;;8.20;4.50;;;;;;;;;;5063423;28;20619;-48
2023/02/14 08:06:36;;;;;;;8.63;4.70;;;;;;;;;;5047560;28;20189;-49
2023/02/14 08:09:06;;;;;;;12.30;5.00;;;;;;;;;;5048157;28;20545;-48
2023/02/14 08:14:26;;;;;;;7.57;4.50;;;;;;;;;;5056399;28;20202;-48
2023/02/14 08:17:00;;;;;;;8.67;5.40;;;;;;;;;;5066904;28;20202;-48
2023/02/14 08:19:33;;;;;;;8.70;4.50;;;;;;;;;;5060452;28;20197;-48
2023/02/14 08:22:01;;;;;;;9.47;4.97;;;;;;;;;;5043529;28;20636;-48
2023/02/14 08:24:43;;;;;;;8.23;4.93;;;;;;;;;;5067053;28;20229;-49
2023/02/14 08:27:16;;;;;;;8.63;4.57;;;;;;;;;;5064079;28;20271;-49
2023/02/14 08:29:46;;;;;;;5.83;4.57;;;;;;;;;;5057388;28;20197;-49
2023/02/14 08:32:19;;;;;;;7.00;5.10;;;;;;;;;;5067751;28;20554;-45
2023/02/14 08:35:00;;;;;;;7.50;4.70;;;;;;;;;;5067288;28;20502;-45
2023/02/14 08:37:44;;;;;;;6.90;4.90;;;;;;;;;;5068260;28;20247;-49
2023/02/14 08:40:14;;;;;;;6.37;4.83;;;;;;;;;;5063424;28;20283;-49
2023/02/14 08:42:44;;;;;;;5.30;4.43;;;;;;;;;;5073752;28;20615;-49
2023/02/14 08:45:16;;;;;;;149.30;37.20;;;;;;;;;;5066573;28;20292;-48
2023/02/14 08:47:52;;;;;;;189.13;43.47;;;;;;;;;;5066617;28;20189;-48
2023/02/14 08:50:27;;;;;;;147.93;38.13;;;;;;;;;;5056268;28;20224;-49
2023/02/14 08:52:57;;;;;;;119.47;33.83;;;;;;;;;;5064463;28;20209;-49
2023/02/14 08:55:28;;;;;;;109.60;30.33;;;;;;;;;;5057397;28;20208;-48
2023/02/14 08:58:00;;;;;;;138.23;36.17;;;;;;;;;;5065413;28;20288;-48
2023/02/14 09:00:30;;;;;;;126.90;36.53;;;;;;;;;;5066572;28;20244;-48
2023/02/14 09:03:03;;;;;;;112.27;34.57;;;;;;;;;;5062865;28;20221;-49
2023/02/14 09:05:35;;;;;;;100.10;29.90;;;;;;;;;;5064529;28;20205;-46
2023/02/14 09:08:04;;;;;;;98.47;28.13;;;;;;;;;;5058339;28;20593;-45
2023/02/14 09:10:37;;;;;;;91.23;27.87;;;;;;;;;;5070271;28;20652;-48
2023/02/14 09:13:08;;;;;;;87.67;27.33;;;;;;;;;;5071638;28;20705;-49
2023/02/14 09:15:37;;;;;;;86.93;28.10;;;;;;;;;;5060926;28;20225;-45
2023/02/14 09:18:10;;;;;;;76.13;25.37;;;;;;;;;;5070277;28;20209;-45
2023/02/14 09:20:43;;;;;;;68.43;25.37;;;;;;;;;;5069311;28;20263;-45
2023/02/14 09:23:13;;;;;;;73.40;24.30;;;;;;;;;;5073883;28;20189;-45
2023/02/14 09:25:45;;;;;;;71.10;24.20;;;;;;;;;;5067495;28;20671;-44
2023/02/14 09:28:17;;;;;;;69.47;22.53;;;;;;;;;;5077555;28;20259;-45
2023/02/14 09:30:48;;;;;;;60.33;22.07;;;;;;;;;;5070197;28;20662;-45
2023/02/14 09:33:19;;;;;;;62.00;20.53;;;;;;;;;;5069988;28;20197;-44
2023/02/14 09:35:47;;;;;;;57.07;22.57;;;;;;;;;;5067656;28;21103;-45
2023/02/14 09:38:22;;;;;;;59.00;20.57;;;;;;;;;;5050543;28;20213;-45
2023/02/14 09:40:54;;;;;;;51.90;19.60;;;;;;;;;;5069663;28;20231;-45
2023/02/14 09:43:42;;;;;;;51.17;18.20;;;;;;;;;;5068156;28;20754;-45
2023/02/14 09:46:14;;;;;;;48.97;19.53;;;;;;;;;;5049703;28;20193;-45
2023/02/14 09:48:46;;;;;;;42.60;17.43;;;;;;;;;;5051952;28;20238;-45
2023/02/14 09:51:22;;;;;;;42.80;15.70;;;;;;;;;;5067570;28;20209;-48
2023/02/14 09:53:58;;;;;;;41.53;16.77;;;;;;;;;;5049909;28;20654;-49
2023/02/14 09:56:50;;;;;;;37.27;15.70;;;;;;;;;;5064981;28;20591;-48
2023/02/14 09:59:33;;;;;;;41.87;15.57;;;;;;;;;;5053099;28;20285;-49
2023/02/14 10:02:21;;;;;;;35.87;14.10;;;;;;;;;;5041665;28;20577;-45
2023/02/14 10:04:54;;;;;;;36.03;13.73;;;;;;;;;;5048304;28;20217;-45
2023/02/14 10:07:42;;;;;;;32.37;12.07;;;;;;;;;;5067184;28;20782;-49
2023/02/14 10:10:30;;;;;;;21.60;10.47;;;;;;;;;;5068841;28;20205;-49
2023/02/14 10:13:11;;;;;;;25.43;10.13;;;;;;;;;;5064918;28;20619;-49
2023/02/14 10:15:45;;;;;;;22.87;10.03;;;;;;;;;;5057562;28;20858;-49
2023/02/14 10:18:21;;;;;;;20.43;8.67;;;;;;;;;;5068182;28;20208;-49
2023/02/14 10:20:56;;;;;;;20.87;8.77;;;;;;;;;;5054668;28;20946;-46
2023/02/14 10:23:37;;;;;;;14.37;7.63;;;;;;;;;;5049648;28;20205;-45
2023/02/14 10:26:29;;;;;;;15.83;7.33;;;;;;;;;;5065416;28;20245;-46
2023/02/14 10:29:07;;;;;;;14.57;6.67;;;;;;;;;;5046870;28;20265;-45
2023/02/14 10:31:56;;;;;;;13.73;7.13;;;;;;;;;;5057897;28;20780;-49
2023/02/14 10:34:46;;;;;;;11.37;6.13;;;;;;;;;;5042345;28;20217;-49
2023/02/14 10:37:37;;;;;;;10.67;5.73;;;;;;;;;;5066042;28;20659;-49
2023/02/14 10:40:23;;;;;;;11.67;6.33;;;;;;;;;;5063208;28;20201;-45
2023/02/14 10:43:08;;;;;;;9.57;5.40;;;;;;;;;;5068484;28;20190;-45
2023/02/14 10:45:54;;;;;;;9.70;5.57;;;;;;;;;;5066164;28;20211;-45
2023/02/14 10:48:37;;;;;;;10.77;5.17;;;;;;;;;;5069279;28;20266;-45
2023/02/14 10:51:13;;;;;;;7.43;4.97;;;;;;;;;;5046001;28;20754;-46
2023/02/14 10:53:59;;;;;;;7.50;4.30;;;;;;;;;;5065985;28;20201;-45
2023/02/14 10:56:41;;;;;;;7.70;4.87;;;;;;;;;;5071931;28;20572;-49
2023/02/14 10:59:26;;;;;;;11.77;4.83;;;;;;;;;;5043953;28;20203;-49
2023/02/14 11:01:55;;;;;;;8.37;4.30;;;;;;;;;;5048286;28;20233;-49
2023/02/14 11:04:24;;;;;;;6.80;4.43;;;;;;;;;;5061241;28;20210;-49
2023/02/14 11:06:56;;;;;;;5.73;4.00;;;;;;;;;;5040512;28;20247;-48
2023/02/14 11:09:26;;;;;;;4.80;3.73;;;;;;;;;;5064207;28;20197;-49
2023/02/14 11:12:02;;;;;;;8.97;3.70;;;;;;;;;;5072536;28;20287;-49
2023/02/14 11:14:34;;;;;;;10.33;3.93;;;;;;;;;;5062435;28;20670;-49
2023/02/14 11:17:25;;;;;;;5.13;4.00;;;;;;;;;;5068393;28;20192;-45
2023/02/14 11:20:01;;;;;;;6.00;4.10;;;;;;;;;;5070621;28;20189;-45
2023/02/14 11:22:36;;;;;;;6.80;4.47;;;;;;;;;;5067674;28;20190;-46
2023/02/14 11:25:07;;;;;;;6.43;4.23;;;;;;;;;;5066101;28;20199;-45
2023/02/14 11:27:38;;;;;;;5.60;3.77;;;;;;;;;;5027553;28;20189;-45
2023/02/14 11:30:14;;;;;;;5.83;4.30;;;;;;;;;;5063216;28;20209;-46
2023/02/14 11:32:41;;;;;;;6.47;4.37;;;;;;;;;;5047124;28;20208;-45
2023/02/14 11:35:26;;;;;;;5.53;4.10;;;;;;;;;;5069578;28;20186;-49
2023/02/14 11:37:58;;;;;;;4.77;3.97;;;;;;;;;;5068058;28;20202;-49
2023/02/14 11:40:37;;;;;;;7.07;4.40;;;;;;;;;;5061441;28;20193;-46
2023/02/14 11:43:17;;;;;;;6.07;4.83;;;;;;;;;;5049923;28;20225;-45
2023/02/14 11:46:04;;;;;;;5.53;4.77;;;;;;;;;;5059201;28;20194;-45
2023/02/14 11:48:35;;;;;;;5.33;4.40;;;;;;;;;;5047839;28;20194;-45
2023/02/14 11:51:15;;;;;;;7.70;4.97;;;;;;;;;;5063705;28;20558;-51
2023/02/14 11:53:50;;;;;;;6.83;5.00;;;;;;;;;;5050974;28;20197;-49
2023/02/14 11:56:21;;;;;;;6.20;5.47;;;;;;;;;;5068411;28;20252;-49
2023/02/14 11:58:58;;;;;;;5.70;5.10;;;;;;;;;;5066764;28;20258;-49
2023/02/14 12:01:33;;;;;;;5.37;4.87;;;;;;;;;;5044678;28;20205;-45
2023/02/14 12:04:25;;;;;;;5.77;4.73;;;;;;;;;;5047386;28;20197;-45
2023/02/14 12:07:13;;;;;;;6.37;5.00;;;;;;;;;;5067143;28;20718;-45
2023/02/14 12:09:44;;;;;;;8.13;5.77;;;21.10;52.60;;;;;;5037023;28;20197;-45
2023/02/14 12:12:25;;;;;;;5.63;4.33;;;21.10;53.30;;;;;;5050365;28;20621;-44
2023/02/14 12:15:33;;;;;;;4.50;4.00;;;21.10;54.00;;;;;;5045849;28;20528;-45
2023/02/14 12:18:41;;;;;;;5.00;3.80;;;21.30;54.40;;;;;;5052153;28;20214;-45
2023/02/14 12:21:39;;;;;;;4.97;4.00;;;21.40;54.20;;;;;;5063156;28;20764;-49
2023/02/14 12:24:33;;;;;;;4.60;3.90;;;21.40;54.50;;;;;;5064441;28;20199;-49
2023/02/14 12:27:45;;;;;;;4.33;3.90;;;21.30;54.40;;;;;;5064451;28;20228;-50
2023/02/14 12:30:34;;;;;;;6.03;3.90;;;21.30;54.80;;;;;;5063913;28;20225;-49
2023/02/14 12:33:15;;;;;;;5.67;4.67;;;21.30;54.90;;;;;;5065322;28;20209;-49
2023/02/14 12:35:56;;;;;;;4.73;3.80;;;21.30;54.80;;;;;;5061520;28;20224;-49
2023/02/14 12:38:43;;;;;;;5.43;4.07;;;21.20;55.20;;;;;;5064440;28;20213;-49
2023/02/14 12:41:28;;;;;;;6.00;4.10;;;21.20;55.20;;;;;;5065263;28;20565;-46
2023/02/14 12:44:28;;;;;;;4.20;3.80;;;21.20;55.30;;;;;;5066647;28;20229;-46
2023/02/14 12:47:44;;;;;;;5.40;4.03;;;21.10;55.40;;;;;;5022840;28;20190;-49
2023/02/14 12:50:25;;;;;;;5.43;4.57;;;21.10;55.40;;;;;;5041998;28;20221;-45
2023/02/14 12:53:25;;;;;;;6.33;4.10;;;21.00;55.50;;;;;;5075075;28;20178;-46
2023/02/14 12:56:42;;;;;;;5.17;4.30;;;21.00;55.90;;;;;;5066262;28;20657;-45
2023/02/14 12:59:49;;;;;;;4.93;4.00;;;21.00;55.70;;;;;;5066415;28;20202;-46
2023/02/14 13:02:51;;;;;;;6.83;4.67;;;21.00;56.00;;;;;;5000908;28;20295;-49
2023/02/14 13:05:52;;;;;;;6.77;4.37;;;20.90;55.60;;;;;;5041545;28;20222;-48
2023/02/14 13:08:23;;;;;;;5.73;4.80;;;20.90;55.40;;;;;;5067165;28;20193;-48
2023/02/14 13:11:16;;;;;;;4.80;4.07;;;20.80;55.50;;;;;;5070252;28;20456;-45
2023/02/14 13:14:10;;;;;;;5.33;4.60;;;20.80;55.50;;;;;;5034485;28;20218;-45
2023/02/14 13:17:12;;;;;;;5.60;4.43;;;20.70;55.60;;;;;;5055216;28;20197;-49
2023/02/14 13:20:24;;;;;;;5.97;4.30;;;20.70;55.70;;;;;;5039200;28;20217;-49
2023/02/14 13:22:53;;;;;;;5.40;4.30;;;20.60;55.70;;;;;;5074957;28;20209;-48
2023/02/14 13:25:36;;;;;;;4.80;4.30;;;20.50;55.80;;;;;;5069365;28;20619;-48
2023/02/14 13:28:09;;;;;;;6.83;4.17;;;20.50;55.70;;;;;;5069952;28;20283;-48
2023/02/14 13:30:41;;;;;;;4.90;4.30;;;20.50;55.80;;;;;;5052253;28;20190;-45
2023/02/14 13:33:26;;;;;;;7.67;4.70;;;20.40;55.80;;;;;;5053630;28;20197;-45
2023/02/14 13:36:09;;;;;;;4.97;4.47;;;20.40;56.00;;;;;;5065291;28;20332;-48
2023/02/14 13:38:47;;;;;;;5.67;4.23;;;20.30;55.70;;;;;;5055183;28;20198;-49
2023/02/14 13:41:22;;;;;;;5.30;4.47;;;20.30;56.00;;;;;;5073328;28;20650;-45
2023/02/14 13:43:53;;;;;;;6.57;3.87;;;20.20;56.00;;;;;;5059589;28;20654;-45
2023/02/14 13:46:35;;;;;;;5.17;4.43;;;20.20;56.10;;;;;;5065447;28;20554;-49
2023/02/14 13:49:28;;;;;;;5.97;5.37;;;20.20;56.20;;;;;;5069645;28;20204;-49
2023/02/14 13:52:02;;;;;;;5.37;4.67;;;20.20;56.00;;;;;;5052865;28;20231;-45
2023/02/14 13:54:43;;;;;;;6.13;4.63;;;20.10;56.10;;;;;;5069393;28;20198;-45
2023/02/14 13:57:45;;;;;;;4.67;4.20;;;20.10;56.30;;;;;;5070154;28;20537;-45
2023/02/14 14:00:34;;;;;;;5.37;4.87;;;20.00;56.40;;;;;;5052899;28;20213;-45
2023/02/14 14:03:06;;;;;;;5.67;4.67;;;20.00;56.40;;;;;;5067309;28;20241;-48
2023/02/14 14:05:56;;;;;;;6.00;4.90;;;20.00;56.40;;;;;;5065387;28;20194;-51
2023/02/14 14:08:30;;;;;;;5.20;4.17;;;20.00;56.50;;;;;;5062834;28;20201;-50
2023/02/14 14:11:24;;;;;;;4.93;4.43;;;20.00;56.70;;;;;;5067972;28;20205;-50
2023/02/14 14:14:17;;;;;;;5.50;4.50;;;20.10;57.00;;;;;;5067203;28;20267;-50
2023/02/14 14:16:58;;;;;;;5.50;4.70;;;20.00;56.60;;;;;;5054893;28;20241;-51
2023/02/14 14:19:38;;;;;;;5.30;4.40;;;20.10;56.70;;;;;;5063225;28;20632;-51
2023/02/14 14:22:15;;;;;;;6.33;4.90;;;20.20;57.40;;;;;;5076251;28;20266;-47
2023/02/14 14:25:04;;;;;;;6.13;4.50;;;20.20;56.80;;;;;;5052692;28;20233;-47
2023/02/14 14:27:44;;;;;;;5.60;4.63;;;20.30;56.80;;;;;;5072858;28;20529;-47
2023/02/14 14:30:31;;;;;;;5.57;4.77;;;20.30;57.00;;;;;;5051413;28;20589;-47
2023/02/14 14:33:24;;;;;;;5.53;4.67;;;20.40;56.80;;;;;;5068349;28;20215;-47
2023/02/14 14:36:07;;;;;;;6.97;4.77;;;20.40;56.90;;;;;;5063412;28;20213;-47
2023/02/14 14:38:50;;;;;;;5.93;4.37;;;20.40;56.80;;;;;;5065625;28;20206;-47
2023/02/14 14:41:19;;;;;;;7.03;4.87;;;20.50;56.90;;;;;;5050684;28;20228;-47
2023/02/14 14:43:49;;;;;;;5.87;4.20;;;20.50;57.00;;;;;;5050040;28;20218;-47
2023/02/14 14:46:18;;;;;;;5.33;4.60;;;20.50;56.70;;;;;;5062894;28;20202;-47
2023/02/14 14:48:49;;;;;;;5.20;4.27;;;20.50;56.80;;;;;;5050906;28;20193;-47
2023/02/14 14:51:29;;;;;;;6.60;4.23;;;20.60;56.80;;;;;;5049789;28;20392;-47
2023/02/14 14:54:07;;;;;;;6.37;4.93;;;20.50;56.70;;;;;;5068646;28;20189;-47
2023/02/14 14:57:00;;;;;;;4.93;4.43;;;20.60;56.60;;;;;;5068636;28;20198;-51
2023/02/14 14:59:36;;;;;;;5.83;4.53;;;20.60;56.70;;;;;;5063899;28;20216;-50
2023/02/14 15:02:25;;;;;;;6.30;4.30;;;20.70;56.90;;;;;;5064536;28;20636;-50
2023/02/14 15:04:56;;;;;;;5.97;4.50;;;20.70;56.90;;;;;;5044078;28;20247;-50
2023/02/14 15:07:42;;;;;;;7.50;4.17;;;20.70;56.90;;;;;;5055644;28;20190;-50
2023/02/14 15:10:26;;;;;;;4.50;4.10;;;20.70;56.90;;;;;;5060326;28;20733;-49
2023/02/14 15:15:50;;;;;;;5.53;4.33;;;20.70;56.90;;;;;;5048576;28;20850;-51
2023/02/14 15:18:22;;;;;;;5.80;4.10;;;20.80;56.80;;;;;;5049880;28;20208;-50
2023/02/14 15:20:51;;;;;;;6.03;4.83;;;20.80;56.90;;;;;;5063752;28;20206;-50
2023/02/14 15:23:24;;;;;;;5.77;4.57;;;20.80;56.90;;;;;;5072149;28;20243;-50
2023/02/14 15:25:54;;;;;;;5.83;4.20;;;20.80;56.60;;;;;;5044606;28;20776;-50
2023/02/14 15:28:35;;;;;;;5.37;4.13;;;20.80;56.70;;;;;;5071848;28;20621;-49
2023/02/14 15:31:10;;;;;;;6.20;4.37;;;20.80;56.90;;;;;;5050061;28;20198;-47